• Join FlightAware (Why Join?)
  • Login
  • US Flag 
03:12AM EDT


 

Airport Tracker/Info


-or-


 

Live Flight TrackerFlight Track Log ✈ SLM462 ✈ 05-Jul-2013 ✈ KMIA - TNCA / AUA

Flight Track Log - Related Links

Times and Time Zones

All times are in EDT time to prevent confusion due to time zone crossing. See the SLM462 flight status page for this flight to view local times or setup timezone preferences in your user account.

Time Position Orientation Groundspeed Altitude Reporting Facility
EDT Latitude Longitude Course Direction KTS MPH feet Rate Location/Type
05:59PM 25.7983 -80.2722 114° Southeast 150 173 900  Level Miami Center
06:00PM 25.7864 -80.2419 114° Southeast 159 183 2,500 1,920 Climbing Miami Center
06:01PM 25.7567 -80.1719 115° Southeast 246 283 4,500 2,100 Climbing Miami Center
06:02PM 25.7381 -80.0653 101° East 284 327 7,800 2,460 Climbing Miami Center
06:03PM 25.7189 -79.9817 104° East 289 333 10,400 1,800 Climbing Miami Center
06:04PM 25.6961 -79.8842 105° East 297 342 11,400 1,560 Climbing Miami Center
06:05PM 25.6711 -79.7708 104° East 336 387 13,600 2,700 Climbing Miami Center
06:06PM 25.6442 -79.6547 104° East 367 422 16,800 2,700 Climbing Miami Center
06:07PM 25.6169 -79.5367 104° East 379 436 19,000 2,100 Climbing Miami Center
06:08PM 25.5689 -79.4250 115° Southeast 390 449 21,000 1,920 Climbing Miami Center
06:09PM 25.4911 -79.3244 131° Southeast 406 467 22,900 1,680 Climbing Miami Center
06:10PM 25.4156 -79.2217 129° Southeast 422 486 24,400 1,500 Climbing Miami Center
06:11PM 25.3339 -79.1119 129° Southeast 436 502 26,000 1,800 Climbing Miami Center
06:12PM 25.2517 -79.0025 130° Southeast 449 517 28,000 1,920 Climbing Miami Center
06:13PM 25.1778 -78.9117 132° Southeast 454 522 29,900 1,620 Climbing Miami Center
06:14PM 25.0936 -78.8069 132° Southeast 449 517 31,300 1,200 Climbing Miami Center
06:15PM 25.0156 -78.6933 127° Southeast 454 522 32,400 1,080 Climbing Miami Center
06:16PM 24.9333 -78.5844 130° Southeast 466 536 33,500 960 Climbing Miami Center
06:17PM 24.8447 -78.4711 131° Southeast 471 542 34,400 720 Climbing Miami Center
06:18PM 24.7622 -78.3603 129° Southeast 476 548 35,000 300 Climbing Miami Center
06:19PM 24.6756 -78.2469 130° Southeast 476 548 35,000  Level Miami Center
06:20PM 24.5889 -78.1364 131° Southeast 476 548 35,000  Level Miami Center
06:21PM 24.5061 -78.0258 129° Southeast 476 548 35,000  Level Miami Center
06:22PM 24.4214 -77.9156 130° Southeast 476 548 35,000  Level Miami Center
06:23PM 24.3364 -77.8078 131° Southeast 476 548 35,000  Level Miami Center
06:24PM 24.2597 -77.7022 129° Southeast 470 541 35,000  Level Miami Center
06:25PM 24.1786 -77.5969 130° Southeast 457 526 35,000  Level Miami Center
06:26PM 24.0978 -77.4939 131° Southeast 451 519 35,000  Level Miami Center
06:27PM 24.0208 -77.3911 129° Southeast 446 513 35,000  Level Miami Center
06:28PM 23.9394 -77.2931 132° Southeast 439 505 35,000  Level Miami Center
06:29PM 23.8647 -77.1883 128° Southeast 439 505 35,000  Level Miami Center
06:30PM 23.7769 -77.0814 132° Southeast 434 499 35,000  Level Miami Center
06:31PM 23.6997 -76.9814 130° Southeast 434 499 35,000  Level Miami Center
06:32PM 23.6372 -76.9019 131° Southeast 434 499 35,000  Level Miami Center
06:33PM 23.5453 -76.7819 130° Southeast 439 505 35,000  Level Miami Center
06:34PM 23.4742 -76.6936 131° Southeast 434 499 35,000  Level Miami Center
06:35PM 23.3986 -76.5964 130° Southeast 434 499 35,000  Level Miami Center
06:36PM 23.3086 -76.4833 131° Southeast 440 506 35,000  Level Miami Center
06:37PM 23.2308 -76.3864 131° Southeast 435 501 35,000  Level Miami Center
06:38PM 23.1533 -76.2872 130° Southeast 435 501 35,000  Level Miami Center
06:39PM 23.0736 -76.1858 131° Southeast 435 501 35,000  Level Miami Center
06:40PM 22.9936 -76.0872 131° Southeast 435 501 35,000  Level Miami Center
06:41PM 22.9158 -75.9861 130° Southeast 435 501 35,000  Level Miami Center
06:42PM 22.8358 -75.8853 131° Southeast 435 501 35,000  Level Miami Center
06:43PM 22.7556 -75.7844 131° Southeast 435 501 35,000  Level Miami Center
06:44PM 22.6756 -75.6839 131° Southeast 440 506 35,000  Level Miami Center
06:45PM 22.5931 -75.5833 132° Southeast 440 506 35,000  Level Miami Center
06:46PM 22.5128 -75.4828 131° Southeast 440 506 35,000  Level Miami Center
06:47PM 22.4325 -75.3825 131° Southeast 440 506 35,000  Level Miami Center
06:48PM 22.3522 -75.2825 131° Southeast 440 506 35,000  Level Miami Center
06:49PM 22.2717 -75.1803 130° Southeast 440 506 35,000  Level Miami Center
06:50PM 22.1892 -75.0825 132° Southeast 440 506 35,000  Level Miami Center
06:51PM 22.0983 -74.9942 138° Southeast 440 506 35,000  Level Miami Center
06:52PM 22.0053 -74.9058 139° Southeast 435 501 35,000  Level Miami Center
06:53PM 21.9100 -74.8156 139° Southeast 446 513 35,000  Level Miami Center
06:54PM 21.8150 -74.7319 141° Southeast 446 513 35,000 -60 Level Miami Center
06:55PM 21.7239 -74.6442 138° Southeast 446 513 34,900  Descending Miami Center
06:56PM 21.6308 -74.5586 139° Southeast 441 507 35,000  Climbing Miami Center
06:57PM 21.5333 -74.4711 140° Southeast 441 507 35,000  Level Miami Center
06:58PM 21.4403 -74.3856 139° Southeast 441 507 35,000  Level Miami Center
06:59PM 21.3428 -74.2983 140° Southeast 441 507 35,000  Level Miami Center
07:00PM 21.2514 -74.2133 139° Southeast 446 513 35,000  Level Miami Center
07:01PM 21.1539 -74.1261 140° Southeast 446 513 35,000  Level Miami Center
07:02PM 21.0583 -74.0392 140° Southeast 446 513 35,000  Level Miami Center
07:03PM 20.9628 -73.9500 139° Southeast 451 519 35,000  Level Miami Center
07:04PM 20.8672 -73.8656 140° Southeast 451 519 35,000  Level Miami Center
07:05PM 20.7717 -73.7789 140° Southeast 451 519 35,000  Level Miami Center
07:06PM 20.6761 -73.6944 140° Southeast 451 519 35,000  Level Miami Center
07:07PM 20.5847 -73.6103 139° Southeast 451 519 35,000 -60 Level Miami Center
07:08PM 20.4869 -73.5239 140° Southeast 451 519 34,900  Descending Miami Center
07:09PM 20.3911 -73.4378 140° Southeast 451 519 35,000  Climbing Miami Center
07:10PM 20.2933 -73.3539 141° Southeast 451 519 35,000  Level Miami Center
07:11PM 20.1994 -73.2681 139° Southeast 451 519 35,000 -60 Level Miami Center
07:12PM 20.0956 -73.1911 145° Southeast 451 519 34,900 -120 Descending Miami Center
07:14PM 19.9404 -73.1009 151° Southeast  Level FlightAware Approximate
07:21PM 19.2254 -72.7033 153° Southeast  Level FlightAware Approximate
07:22PM 19.1229 -72.6473 153° Southeast  Level FlightAware Approximate
07:23PM 19.0207 -72.5909 152° Southeast  Level FlightAware Approximate
07:24PM 18.9188 -72.5337 152° Southeast  Level FlightAware Approximate
07:25PM 18.8169 -72.4767 152° Southeast  Level FlightAware Approximate
07:26PM 18.7150 -72.4197 152° Southeast  Level FlightAware Approximate
07:27PM 18.6128 -72.3633 153° Southeast  Level FlightAware Approximate
07:28PM 18.5101 -72.3080 153° Southeast  Level FlightAware Approximate
07:29PM 18.4088 -72.2503 148° Southeast  Level FlightAware Approximate
07:30PM 18.3113 -72.1852 148° Southeast  Level FlightAware Approximate
07:31PM 18.2139 -72.1203 148° Southeast  Level FlightAware Approximate
07:32PM 18.1159 -72.0565 151° Southeast  Level FlightAware Approximate
07:33PM 18.0150 -71.9976 151° Southeast  Level FlightAware Approximate
07:34PM 17.9146 -71.9381 149° Southeast  Level FlightAware Approximate
07:35PM 17.8160 -71.8752 149° Southeast  Level FlightAware Approximate
07:36PM 17.7174 -71.8125 149° Southeast  Level FlightAware Approximate
07:37PM 17.6188 -71.7498 149° Southeast  Level FlightAware Approximate
07:38PM 17.5229 -71.6835 150° Southeast  Level FlightAware Approximate
07:39PM 17.4232 -71.6227 150° Southeast  Level FlightAware Approximate
07:40PM 17.3235 -71.5620 150° Southeast  Level FlightAware Approximate
07:41PM 17.2238 -71.5014 150° Southeast  Level FlightAware Approximate
07:42PM 17.1244 -71.4402 149° Southeast  Level FlightAware Approximate
07:43PM 17.0254 -71.3783 149° Southeast  Level FlightAware Approximate
07:44PM 16.9264 -71.3165 149° Southeast  Level FlightAware Approximate
07:45PM 16.8271 -71.2552 150° Southeast  Level FlightAware Approximate
07:46PM 16.7277 -71.1942 150° Southeast  Level FlightAware Approximate
07:47PM 16.6282 -71.1333 150° Southeast  Level FlightAware Approximate
07:48PM 16.5288 -71.0724 150° Southeast  Level FlightAware Approximate
07:49PM 16.4293 -71.0116 150° Southeast  Level FlightAware Approximate
07:50PM 16.3298 -70.9508 150° Southeast  Level FlightAware Approximate
07:51PM 16.2303 -70.8902 150° Southeast  Level FlightAware Approximate
07:52PM 16.1307 -70.8295 150° Southeast  Level FlightAware Approximate
07:53PM 16.0312 -70.7690 150° Southeast  Level FlightAware Approximate
07:54PM 15.9280 -70.7158 155° Southeast  Level FlightAware Approximate
07:55PM 15.8230 -70.6660 155° Southeast  Level FlightAware Approximate
07:56PM 15.7181 -70.6163 155° Southeast  Level FlightAware Approximate
07:57PM 15.6132 -70.5666 155° Southeast  Level FlightAware Approximate
07:58PM 15.5083 -70.5170 156° South  Level FlightAware Approximate
07:59PM 15.4033 -70.4674 156° South  Level FlightAware Approximate
08:00PM 15.2984 -70.4179 156° South  Level FlightAware Approximate
08:01PM 15.1934 -70.3685 156° South  Level FlightAware Approximate
08:02PM 15.0884 -70.3191 156° South  Level FlightAware Approximate
08:03PM 14.9832 -70.2701 156° South  Level FlightAware Approximate
08:04PM 14.8780 -70.2212 156° South  Level FlightAware Approximate
08:05PM 14.7728 -70.1724 156° South  Level FlightAware Approximate
08:06PM 14.6676 -70.1236 156° South  Level FlightAware Approximate
08:07PM 14.5612 -70.0778 159° South  Level FlightAware Approximate
08:08PM 14.4549 -70.0318 157° South  Level FlightAware Approximate
08:09PM 14.3459 -70.0000 180° South  Level FlightAware Approximate
08:10PM 14.2306 -70.0000 180° South  Level FlightAware Approximate
08:11PM 14.1154 -69.9968 175° South  Level FlightAware Approximate
08:12PM 14.0005 -69.9864 175° South  Level FlightAware Approximate
08:13PM 13.8853 -69.9833 180° South  Level FlightAware Approximate
08:14PM 13.7700 -69.9833 180° South  Level FlightAware Approximate
08:15PM 13.6547 -69.9833 180° South  Level FlightAware Approximate
08:16PM 13.5395 -69.9791 178° South  Level FlightAware Approximate
08:17PM 13.4242 -69.9746 178° South  Level FlightAware Approximate
08:18PM 13.3090 -69.9702 178° South  Level FlightAware Approximate
08:19PM 13.1939 -69.9644 174° South  Level FlightAware Approximate
08:20PM 13.0791 -69.9529 174° South  Level FlightAware Approximate
08:21PM 12.9639 -69.9500 180° South  Level FlightAware Approximate
08:22PM 12.8486 -69.9500 180° South  Level FlightAware Approximate
08:23PM 12.7333 -69.9500 180° South  Level FlightAware Approximate
08:24PM 12.6246 -69.9333 180° South  Level FlightAware Approximate
08:25PM 12.5093 -69.9333 180° South  Level FlightAware Approximate
08:26PM 12.5000 -70.0167 270° West  Level FlightAware Approximate
08:27PM 12.5014 -70.0152 270° West  Level Estimated
08:28PM 12.5000 -70.0167 270° West  Level FlightAware Approximate
08:29PM 12.5014 -70.0152 270° West  Level Estimated
08:30PM 12.5000 -70.0167 270° West  Level FlightAware Approximate
08:31PM 12.5014 -70.0152 270° West  Level Estimated
08:32PM 12.5000 -70.0167 270° West  Level FlightAware Approximate
08:33PM 12.5014 -70.0152 270° West  Level Estimated
08:34PM 12.5000 -70.0167 270° West  Level FlightAware Approximate
08:35PM 12.5014 -70.0152 270° West  Level Estimated
08:36PM 12.5000 -70.0167 270° West  Level FlightAware Approximate
08:37PM 12.5014 -70.0152 270° West  Level Estimated
08:38PM 12.5000 -70.0167 270° West  Level FlightAware Approximate
08:39PM 12.5014 -70.0152 270° West  Level Estimated
08:40PM 12.5000 -70.0167 270° West  Level FlightAware Approximate
08:41PM 12.5014 -70.0152 270° West  Level Estimated
08:42PM 12.5000 -70.0167 270° West  Level FlightAware Approximate
08:43PM 12.5014 -70.0152 270° West  Level Estimated
08:44PM 12.5000 -70.0167 270° West  Level FlightAware Approximate